sensor_id;sensor_type;location;lat;lon;timestamp;P1;durP1;ratioP1;P2;durP2;ratioP2
3155;SDS011;1588;50.892;7.082;2023-07-20T00:00:33;5.43;;;2.87;;
3155;SDS011;1588;50.892;7.082;2023-07-20T00:05:36;7.20;;;3.17;;
3155;SDS011;1588;50.892;7.082;2023-07-20T00:10:39;5.53;;;3.07;;
3155;SDS011;1588;50.892;7.082;2023-07-20T00:15:43;9.60;;;3.13;;
3155;SDS011;1588;50.892;7.082;2023-07-20T00:20:46;5.90;;;3.30;;
3155;SDS011;1588;50.892;7.082;2023-07-20T00:25:48;7.73;;;2.87;;
3155;SDS011;1588;50.892;7.082;2023-07-20T00:30:52;4.03;;;2.80;;
3155;SDS011;1588;50.892;7.082;2023-07-20T00:35:54;7.20;;;2.50;;
3155;SDS011;1588;50.892;7.082;2023-07-20T00:40:58;7.23;;;2.77;;
3155;SDS011;1588;50.892;7.082;2023-07-20T00:46:01;5.17;;;2.97;;
3155;SDS011;1588;50.892;7.082;2023-07-20T00:51:04;4.40;;;2.83;;
3155;SDS011;1588;50.892;7.082;2023-07-20T00:56:07;6.13;;;2.87;;
3155;SDS011;1588;50.892;7.082;2023-07-20T01:01:11;4.50;;;2.87;;
3155;SDS011;1588;50.892;7.082;2023-07-20T01:06:16;4.60;;;3.00;;
3155;SDS011;1588;50.892;7.082;2023-07-20T01:11:28;5.80;;;3.30;;
3155;SDS011;1588;50.892;7.082;2023-07-20T01:16:39;5.20;;;3.30;;
3155;SDS011;1588;50.892;7.082;2023-07-20T01:21:44;5.40;;;3.47;;
3155;SDS011;1588;50.892;7.082;2023-07-20T01:26:56;6.00;;;2.70;;
3155;SDS011;1588;50.892;7.082;2023-07-20T01:32:15;6.87;;;3.93;;
3155;SDS011;1588;50.892;7.082;2023-07-20T01:37:32;6.50;;;2.83;;
3155;SDS011;1588;50.892;7.082;2023-07-20T01:42:36;11.60;;;3.47;;
3155;SDS011;1588;50.892;7.082;2023-07-20T01:47:40;8.00;;;3.10;;
3155;SDS011;1588;50.892;7.082;2023-07-20T01:52:47;5.37;;;3.60;;
3155;SDS011;1588;50.892;7.082;2023-07-20T01:57:49;8.43;;;3.07;;
3155;SDS011;1588;50.892;7.082;2023-07-20T02:02:53;8.03;;;3.30;;
3155;SDS011;1588;50.892;7.082;2023-07-20T02:07:55;5.30;;;3.03;;
3155;SDS011;1588;50.892;7.082;2023-07-20T02:12:58;7.33;;;3.20;;
3155;SDS011;1588;50.892;7.082;2023-07-20T02:18:01;10.10;;;2.90;;
3155;SDS011;1588;50.892;7.082;2023-07-20T02:23:04;7.57;;;2.80;;
3155;SDS011;1588;50.892;7.082;2023-07-20T02:28:06;6.10;;;2.50;;
3155;SDS011;1588;50.892;7.082;2023-07-20T02:33:11;10.87;;;3.50;;
3155;SDS011;1588;50.892;7.082;2023-07-20T02:38:13;4.80;;;2.80;;
3155;SDS011;1588;50.892;7.082;2023-07-20T02:43:17;7.00;;;3.20;;
3155;SDS011;1588;50.892;7.082;2023-07-20T02:48:20;4.20;;;3.03;;
3155;SDS011;1588;50.892;7.082;2023-07-20T02:53:23;9.60;;;3.47;;
3155;SDS011;1588;50.892;7.082;2023-07-20T02:58:25;6.30;;;3.40;;
3155;SDS011;1588;50.892;7.082;2023-07-20T03:03:29;7.30;;;2.90;;
3155;SDS011;1588;50.892;7.082;2023-07-20T03:08:32;6.57;;;2.83;;
3155;SDS011;1588;50.892;7.082;2023-07-20T03:13:35;6.73;;;3.80;;
3155;SDS011;1588;50.892;7.082;2023-07-20T03:18:39;7.70;;;3.40;;
3155;SDS011;1588;50.892;7.082;2023-07-20T03:23:42;6.03;;;3.87;;
3155;SDS011;1588;50.892;7.082;2023-07-20T03:28:44;4.33;;;2.97;;
3155;SDS011;1588;50.892;7.082;2023-07-20T03:34:08;3.30;;;2.67;;
3155;SDS011;1588;50.892;7.082;2023-07-20T03:39:10;9.43;;;2.53;;
3155;SDS011;1588;50.892;7.082;2023-07-20T03:44:13;6.33;;;3.27;;
3155;SDS011;1588;50.892;7.082;2023-07-20T03:49:17;6.50;;;2.93;;
3155;SDS011;1588;50.892;7.082;2023-07-20T03:54:19;7.83;;;3.20;;
3155;SDS011;1588;50.892;7.082;2023-07-20T03:59:22;6.50;;;3.00;;
3155;SDS011;1588;50.892;7.082;2023-07-20T04:04:26;7.80;;;3.00;;
3155;SDS011;1588;50.892;7.082;2023-07-20T04:09:31;6.53;;;2.90;;
3155;SDS011;1588;50.892;7.082;2023-07-20T04:14:33;5.97;;;2.57;;
3155;SDS011;1588;50.892;7.082;2023-07-20T04:19:37;5.53;;;2.53;;
3155;SDS011;1588;50.892;7.082;2023-07-20T04:24:39;3.47;;;2.53;;
3155;SDS011;1588;50.892;7.082;2023-07-20T04:29:42;10.47;;;3.40;;
3155;SDS011;1588;50.892;7.082;2023-07-20T04:34:45;5.73;;;2.80;;
3155;SDS011;1588;50.892;7.082;2023-07-20T04:39:48;7.13;;;2.63;;
3155;SDS011;1588;50.892;7.082;2023-07-20T04:44:50;6.07;;;2.70;;
3155;SDS011;1588;50.892;7.082;2023-07-20T04:49:54;7.53;;;3.03;;
3155;SDS011;1588;50.892;7.082;2023-07-20T04:54:56;12.83;;;3.30;;
3155;SDS011;1588;50.892;7.082;2023-07-20T05:00:06;7.37;;;3.00;;
3155;SDS011;1588;50.892;7.082;2023-07-20T05:05:18;7.90;;;3.67;;
3155;SDS011;1588;50.892;7.082;2023-07-20T05:10:38;11.90;;;3.50;;
3155;SDS011;1588;50.892;7.082;2023-07-20T05:15:43;9.40;;;4.33;;
3155;SDS011;1588;50.892;7.082;2023-07-20T05:20:47;6.93;;;3.40;;
3155;SDS011;1588;50.892;7.082;2023-07-20T05:25:53;9.17;;;4.20;;
3155;SDS011;1588;50.892;7.082;2023-07-20T05:30:56;12.00;;;4.93;;
3155;SDS011;1588;50.892;7.082;2023-07-20T05:36:01;6.37;;;3.87;;
3155;SDS011;1588;50.892;7.082;2023-07-20T05:41:06;11.83;;;4.60;;
3155;SDS011;1588;50.892;7.082;2023-07-20T05:46:11;13.50;;;4.73;;
3155;SDS011;1588;50.892;7.082;2023-07-20T05:51:14;8.90;;;4.73;;
3155;SDS011;1588;50.892;7.082;2023-07-20T05:56:17;13.07;;;4.90;;
3155;SDS011;1588;50.892;7.082;2023-07-20T06:01:19;14.13;;;4.80;;
3155;SDS011;1588;50.892;7.082;2023-07-20T06:06:23;11.83;;;4.43;;
3155;SDS011;1588;50.892;7.082;2023-07-20T06:11:26;15.53;;;4.87;;
3155;SDS011;1588;50.892;7.082;2023-07-20T06:16:28;9.33;;;6.00;;
3155;SDS011;1588;50.892;7.082;2023-07-20T06:21:32;9.53;;;5.47;;
3155;SDS011;1588;50.892;7.082;2023-07-20T06:26:35;11.47;;;6.20;;
3155;SDS011;1588;50.892;7.082;2023-07-20T06:31:39;16.17;;;6.53;;
3155;SDS011;1588;50.892;7.082;2023-07-20T06:36:43;23.43;;;7.10;;
3155;SDS011;1588;50.892;7.082;2023-07-20T06:41:45;11.47;;;6.63;;
3155;SDS011;1588;50.892;7.082;2023-07-20T06:46:48;13.17;;;7.23;;
3155;SDS011;1588;50.892;7.082;2023-07-20T06:51:52;16.90;;;8.07;;
3155;SDS011;1588;50.892;7.082;2023-07-20T06:56:55;15.37;;;8.63;;
3155;SDS011;1588;50.892;7.082;2023-07-20T07:01:59;17.37;;;7.90;;
3155;SDS011;1588;50.892;7.082;2023-07-20T07:07:03;13.20;;;6.90;;
3155;SDS011;1588;50.892;7.082;2023-07-20T07:12:06;15.73;;;7.23;;
3155;SDS011;1588;50.892;7.082;2023-07-20T07:17:09;15.77;;;8.00;;
3155;SDS011;1588;50.892;7.082;2023-07-20T07:22:13;13.73;;;6.27;;
3155;SDS011;1588;50.892;7.082;2023-07-20T07:27:16;10.90;;;5.80;;
3155;SDS011;1588;50.892;7.082;2023-07-20T07:32:18;15.50;;;6.60;;
3155;SDS011;1588;50.892;7.082;2023-07-20T07:37:33;13.63;;;6.27;;
3155;SDS011;1588;50.892;7.082;2023-07-20T07:42:35;12.40;;;6.50;;
3155;SDS011;1588;50.892;7.082;2023-07-20T07:47:38;12.57;;;6.30;;
3155;SDS011;1588;50.892;7.082;2023-07-20T07:52:42;12.00;;;6.13;;
3155;SDS011;1588;50.892;7.082;2023-07-20T07:57:44;9.70;;;5.73;;
3155;SDS011;1588;50.892;7.082;2023-07-20T08:02:49;8.47;;;4.40;;
3155;SDS011;1588;50.892;7.082;2023-07-20T08:07:54;8.37;;;4.97;;
3155;SDS011;1588;50.892;7.082;2023-07-20T08:12:56;11.27;;;4.60;;
3155;SDS011;1588;50.892;7.082;2023-07-20T08:17:59;10.33;;;4.90;;
3155;SDS011;1588;50.892;7.082;2023-07-20T08:23:03;7.13;;;4.17;;
3155;SDS011;1588;50.892;7.082;2023-07-20T08:28:05;8.20;;;3.90;;
3155;SDS011;1588;50.892;7.082;2023-07-20T08:33:08;8.63;;;4.30;;
3155;SDS011;1588;50.892;7.082;2023-07-20T08:38:13;3.70;;;3.00;;
3155;SDS011;1588;50.892;7.082;2023-07-20T08:43:15;3.60;;;3.30;;
3155;SDS011;1588;50.892;7.082;2023-07-20T08:48:19;5.00;;;3.47;;
3155;SDS011;1588;50.892;7.082;2023-07-20T08:53:27;4.13;;;3.63;;
3155;SDS011;1588;50.892;7.082;2023-07-20T08:58:36;7.73;;;3.80;;
3155;SDS011;1588;50.892;7.082;2023-07-20T09:03:39;4.20;;;3.10;;
3155;SDS011;1588;50.892;7.082;2023-07-20T09:08:50;3.10;;;2.80;;
3155;SDS011;1588;50.892;7.082;2023-07-20T09:14:02;7.73;;;3.50;;
3155;SDS011;1588;50.892;7.082;2023-07-20T09:19:05;12.17;;;4.73;;
3155;SDS011;1588;50.892;7.082;2023-07-20T09:24:11;3.13;;;2.47;;
3155;SDS011;1588;50.892;7.082;2023-07-20T09:29:14;3.13;;;2.50;;
3155;SDS011;1588;50.892;7.082;2023-07-20T09:34:20;2.77;;;2.27;;
3155;SDS011;1588;50.892;7.082;2023-07-20T09:39:24;2.87;;;2.57;;
3155;SDS011;1588;50.892;7.082;2023-07-20T09:44:27;6.27;;;2.70;;
3155;SDS011;1588;50.892;7.082;2023-07-20T09:49:30;7.23;;;3.47;;
3155;SDS011;1588;50.892;7.082;2023-07-20T09:54:34;5.23;;;2.60;;
3155;SDS011;1588;50.892;7.082;2023-07-20T09:59:37;4.30;;;2.97;;
3155;SDS011;1588;50.892;7.082;2023-07-20T10:04:39;3.70;;;2.53;;
3155;SDS011;1588;50.892;7.082;2023-07-20T10:09:45;3.50;;;3.20;;
3155;SDS011;1588;50.892;7.082;2023-07-20T10:14:49;6.97;;;3.17;;
3155;SDS011;1588;50.892;7.082;2023-07-20T10:19:58;2.20;;;2.10;;
3155;SDS011;1588;50.892;7.082;2023-07-20T10:25:12;2.70;;;2.50;;
3155;SDS011;1588;50.892;7.082;2023-07-20T10:30:15;7.13;;;2.60;;
3155;SDS011;1588;50.892;7.082;2023-07-20T10:35:19;2.70;;;2.40;;
3155;SDS011;1588;50.892;7.082;2023-07-20T10:40:30;4.70;;;2.53;;
3155;SDS011;1588;50.892;7.082;2023-07-20T10:45:36;17.97;;;2.60;;
3155;SDS011;1588;50.892;7.082;2023-07-20T10:50:42;2.50;;;2.00;;
3155;SDS011;1588;50.892;7.082;2023-07-20T10:55:48;6.10;;;2.10;;
3155;SDS011;1588;50.892;7.082;2023-07-20T11:01:27;2.00;;;1.90;;
3155;SDS011;1588;50.892;7.082;2023-07-20T11:06:31;4.10;;;1.90;;
3155;SDS011;1588;50.892;7.082;2023-07-20T11:11:46;2.33;;;1.90;;
3155;SDS011;1588;50.892;7.082;2023-07-20T11:16:50;8.53;;;2.63;;
3155;SDS011;1588;50.892;7.082;2023-07-20T11:22:01;2.13;;;2.03;;
3155;SDS011;1588;50.892;7.082;2023-07-20T11:27:11;2.83;;;2.60;;
3155;SDS011;1588;50.892;7.082;2023-07-20T11:32:30;2.27;;;2.07;;
3155;SDS011;1588;50.892;7.082;2023-07-20T11:37:36;3.10;;;2.27;;
3155;SDS011;1588;50.892;7.082;2023-07-20T11:42:46;2.40;;;1.60;;
3155;SDS011;1588;50.892;7.082;2023-07-20T11:47:50;2.77;;;2.57;;
3155;SDS011;1588;50.892;7.082;2023-07-20T11:52:53;2.10;;;1.90;;
3155;SDS011;1588;50.892;7.082;2023-07-20T11:58:04;2.13;;;1.87;;
3155;SDS011;1588;50.892;7.082;2023-07-20T12:03:07;3.20;;;2.53;;
3155;SDS011;1588;50.892;7.082;2023-07-20T12:08:10;2.03;;;1.90;;
3155;SDS011;1588;50.892;7.082;2023-07-20T12:13:14;3.03;;;1.73;;
3155;SDS011;1588;50.892;7.082;2023-07-20T12:18:17;9.93;;;3.67;;
3155;SDS011;1588;50.892;7.082;2023-07-20T12:23:19;2.70;;;1.70;;
3155;SDS011;1588;50.892;7.082;2023-07-20T12:28:23;4.60;;;1.90;;
3155;SDS011;1588;50.892;7.082;2023-07-20T12:33:32;3.23;;;2.03;;
3155;SDS011;1588;50.892;7.082;2023-07-20T12:38:34;2.07;;;1.97;;
3155;SDS011;1588;50.892;7.082;2023-07-20T12:43:38;2.00;;;1.80;;
3155;SDS011;1588;50.892;7.082;2023-07-20T12:48:44;12.40;;;1.60;;
3155;SDS011;1588;50.892;7.082;2023-07-20T12:53:49;3.00;;;1.50;;
3155;SDS011;1588;50.892;7.082;2023-07-20T12:58:53;2.00;;;1.83;;
3155;SDS011;1588;50.892;7.082;2023-07-20T13:03:55;3.40;;;1.83;;
3155;SDS011;1588;50.892;7.082;2023-07-20T13:08:58;4.03;;;2.03;;
3155;SDS011;1588;50.892;7.082;2023-07-20T13:14:01;2.07;;;1.60;;
3155;SDS011;1588;50.892;7.082;2023-07-20T13:19:04;4.03;;;2.00;;
3155;SDS011;1588;50.892;7.082;2023-07-20T13:24:06;14.00;;;3.17;;
3155;SDS011;1588;50.892;7.082;2023-07-20T13:29:10;2.13;;;1.93;;
3155;SDS011;1588;50.892;7.082;2023-07-20T13:34:13;3.43;;;2.07;;
3155;SDS011;1588;50.892;7.082;2023-07-20T13:39:16;4.63;;;1.70;;
3155;SDS011;1588;50.892;7.082;2023-07-20T13:44:19;11.90;;;2.17;;
3155;SDS011;1588;50.892;7.082;2023-07-20T13:49:22;12.00;;;1.77;;
3155;SDS011;1588;50.892;7.082;2023-07-20T13:54:24;5.50;;;1.77;;
3155;SDS011;1588;50.892;7.082;2023-07-20T13:59:28;4.57;;;2.30;;
3155;SDS011;1588;50.892;7.082;2023-07-20T14:04:31;1.67;;;1.40;;
3155;SDS011;1588;50.892;7.082;2023-07-20T14:09:33;5.20;;;1.70;;
3155;SDS011;1588;50.892;7.082;2023-07-20T14:14:37;3.27;;;2.30;;
3155;SDS011;1588;50.892;7.082;2023-07-20T14:19:43;2.63;;;1.50;;
3155;SDS011;1588;50.892;7.082;2023-07-20T14:24:45;4.50;;;2.57;;
3155;SDS011;1588;50.892;7.082;2023-07-20T14:29:49;3.63;;;1.50;;
3155;SDS011;1588;50.892;7.082;2023-07-20T14:34:52;1.60;;;1.50;;
3155;SDS011;1588;50.892;7.082;2023-07-20T14:39:55;6.70;;;1.70;;
3155;SDS011;1588;50.892;7.082;2023-07-20T14:45:03;3.37;;;2.07;;
3155;SDS011;1588;50.892;7.082;2023-07-20T14:50:07;2.90;;;1.47;;
3155;SDS011;1588;50.892;7.082;2023-07-20T14:55:11;2.80;;;1.63;;
3155;SDS011;1588;50.892;7.082;2023-07-20T15:00:15;2.40;;;1.60;;
3155;SDS011;1588;50.892;7.082;2023-07-20T15:05:23;1.90;;;1.70;;
3155;SDS011;1588;50.892;7.082;2023-07-20T15:10:27;3.23;;;1.37;;
3155;SDS011;1588;50.892;7.082;2023-07-20T15:15:31;1.20;;;1.10;;
3155;SDS011;1588;50.892;7.082;2023-07-20T15:20:34;1.70;;;1.60;;
3155;SDS011;1588;50.892;7.082;2023-07-20T15:25:37;2.83;;;1.60;;
3155;SDS011;1588;50.892;7.082;2023-07-20T15:30:41;5.53;;;1.80;;
3155;SDS011;1588;50.892;7.082;2023-07-20T15:35:47;1.57;;;1.47;;
3155;SDS011;1588;50.892;7.082;2023-07-20T15:40:52;2.63;;;1.90;;
3155;SDS011;1588;50.892;7.082;2023-07-20T15:51:37;3.40;;;1.77;;
3155;SDS011;1588;50.892;7.082;2023-07-20T15:56:41;1.80;;;1.70;;
3155;SDS011;1588;50.892;7.082;2023-07-20T16:01:46;3.10;;;1.93;;
3155;SDS011;1588;50.892;7.082;2023-07-20T16:07:03;3.63;;;2.00;;
3155;SDS011;1588;50.892;7.082;2023-07-20T16:12:07;4.03;;;1.57;;
3155;SDS011;1588;50.892;7.082;2023-07-20T16:17:12;3.93;;;1.87;;
3155;SDS011;1588;50.892;7.082;2023-07-20T16:22:27;6.87;;;2.20;;
3155;SDS011;1588;50.892;7.082;2023-07-20T16:27:32;1.80;;;1.70;;
3155;SDS011;1588;50.892;7.082;2023-07-20T16:32:36;3.73;;;1.70;;
3155;SDS011;1588;50.892;7.082;2023-07-20T16:37:55;1.93;;;1.80;;
3155;SDS011;1588;50.892;7.082;2023-07-20T16:42:57;2.23;;;2.13;;
3155;SDS011;1588;50.892;7.082;2023-07-20T16:48:06;3.47;;;1.83;;
3155;SDS011;1588;50.892;7.082;2023-07-20T16:53:14;4.57;;;1.83;;
3155;SDS011;1588;50.892;7.082;2023-07-20T16:58:17;1.87;;;1.77;;
3155;SDS011;1588;50.892;7.082;2023-07-20T17:03:21;1.60;;;1.50;;
3155;SDS011;1588;50.892;7.082;2023-07-20T17:08:23;72.30;;;4.47;;
3155;SDS011;1588;50.892;7.082;2023-07-20T17:13:29;3.30;;;1.70;;
3155;SDS011;1588;50.892;7.082;2023-07-20T17:18:47;10.57;;;1.57;;
3155;SDS011;1588;50.892;7.082;2023-07-20T17:23:57;2.43;;;1.90;;
3155;SDS011;1588;50.892;7.082;2023-07-20T17:29:00;1.80;;;1.70;;
3155;SDS011;1588;50.892;7.082;2023-07-20T17:34:07;2.07;;;1.67;;
3155;SDS011;1588;50.892;7.082;2023-07-20T17:39:16;1.43;;;1.30;;
3155;SDS011;1588;50.892;7.082;2023-07-20T17:44:18;5.30;;;1.90;;
3155;SDS011;1588;50.892;7.082;2023-07-20T17:49:44;1.50;;;1.20;;
3155;SDS011;1588;50.892;7.082;2023-07-20T17:54:48;1.50;;;1.40;;
3155;SDS011;1588;50.892;7.082;2023-07-20T17:59:51;8.30;;;1.70;;
3155;SDS011;1588;50.892;7.082;2023-07-20T18:05:15;2.87;;;1.33;;
3155;SDS011;1588;50.892;7.082;2023-07-20T18:10:18;1.73;;;1.40;;
3155;SDS011;1588;50.892;7.082;2023-07-20T18:15:22;6.57;;;1.70;;
3155;SDS011;1588;50.892;7.082;2023-07-20T18:20:33;4.50;;;1.73;;
3155;SDS011;1588;50.892;7.082;2023-07-20T18:25:36;1.50;;;1.30;;
3155;SDS011;1588;50.892;7.082;2023-07-20T18:30:50;3.00;;;1.60;;
3155;SDS011;1588;50.892;7.082;2023-07-20T18:35:58;5.10;;;1.40;;
3155;SDS011;1588;50.892;7.082;2023-07-20T18:41:21;1.37;;;1.27;;
3155;SDS011;1588;50.892;7.082;2023-07-20T18:46:24;1.90;;;1.67;;
3155;SDS011;1588;50.892;7.082;2023-07-20T18:51:28;3.63;;;1.57;;
3155;SDS011;1588;50.892;7.082;2023-07-20T18:56:32;2.47;;;1.40;;
3155;SDS011;1588;50.892;7.082;2023-07-20T19:01:35;2.70;;;1.10;;
3155;SDS011;1588;50.892;7.082;2023-07-20T19:06:39;3.43;;;1.63;;
3155;SDS011;1588;50.892;7.082;2023-07-20T19:11:41;7.50;;;1.67;;
3155;SDS011;1588;50.892;7.082;2023-07-20T19:16:45;6.33;;;1.60;;
3155;SDS011;1588;50.892;7.082;2023-07-20T19:21:50;3.40;;;1.40;;
3155;SDS011;1588;50.892;7.082;2023-07-20T19:26:53;3.37;;;1.23;;
3155;SDS011;1588;50.892;7.082;2023-07-20T19:32:10;1.30;;;1.20;;
3155;SDS011;1588;50.892;7.082;2023-07-20T19:37:33;1.40;;;1.27;;
3155;SDS011;1588;50.892;7.082;2023-07-20T19:42:36;3.87;;;1.30;;
3155;SDS011;1588;50.892;7.082;2023-07-20T19:47:38;1.90;;;1.33;;
3155;SDS011;1588;50.892;7.082;2023-07-20T19:52:45;1.90;;;1.00;;
3155;SDS011;1588;50.892;7.082;2023-07-20T19:57:48;1.50;;;1.40;;
3155;SDS011;1588;50.892;7.082;2023-07-20T20:02:51;1.53;;;1.20;;
3155;SDS011;1588;50.892;7.082;2023-07-20T20:07:55;2.30;;;1.57;;
3155;SDS011;1588;50.892;7.082;2023-07-20T20:13:17;1.50;;;1.40;;
3155;SDS011;1588;50.892;7.082;2023-07-20T20:18:19;1.97;;;1.50;;
3155;SDS011;1588;50.892;7.082;2023-07-20T20:23:24;2.50;;;1.40;;
3155;SDS011;1588;50.892;7.082;2023-07-20T20:28:27;2.30;;;1.50;;
3155;SDS011;1588;50.892;7.082;2023-07-20T20:33:29;2.03;;;1.37;;
3155;SDS011;1588;50.892;7.082;2023-07-20T20:38:37;3.23;;;1.30;;
3155;SDS011;1588;50.892;7.082;2023-07-20T20:43:39;1.93;;;1.50;;
3155;SDS011;1588;50.892;7.082;2023-07-20T20:48:41;1.50;;;1.40;;
3155;SDS011;1588;50.892;7.082;2023-07-20T20:53:49;3.80;;;1.37;;
3155;SDS011;1588;50.892;7.082;2023-07-20T20:58:51;1.83;;;1.60;;
3155;SDS011;1588;50.892;7.082;2023-07-20T21:03:54;1.70;;;1.60;;
3155;SDS011;1588;50.892;7.082;2023-07-20T21:08:58;2.17;;;1.53;;
3155;SDS011;1588;50.892;7.082;2023-07-20T21:14:00;5.10;;;2.70;;
3155;SDS011;1588;50.892;7.082;2023-07-20T21:19:03;13.63;;;3.13;;
3155;SDS011;1588;50.892;7.082;2023-07-20T21:24:07;5.43;;;3.43;;
3155;SDS011;1588;50.892;7.082;2023-07-20T21:29:09;8.50;;;3.70;;
3155;SDS011;1588;50.892;7.082;2023-07-20T21:34:12;7.23;;;4.10;;
3155;SDS011;1588;50.892;7.082;2023-07-20T21:39:16;7.27;;;4.80;;
3155;SDS011;1588;50.892;7.082;2023-07-20T21:44:18;10.60;;;4.67;;
3155;SDS011;1588;50.892;7.082;2023-07-20T21:49:21;6.53;;;4.83;;
3155;SDS011;1588;50.892;7.082;2023-07-20T21:54:25;6.37;;;5.30;;
3155;SDS011;1588;50.892;7.082;2023-07-20T21:59:27;9.33;;;5.80;;
3155;SDS011;1588;50.892;7.082;2023-07-20T22:04:29;7.60;;;6.07;;
3155;SDS011;1588;50.892;7.082;2023-07-20T22:09:33;10.47;;;6.57;;
3155;SDS011;1588;50.892;7.082;2023-07-20T22:14:36;7.03;;;5.87;;
3155;SDS011;1588;50.892;7.082;2023-07-20T22:19:39;7.50;;;5.60;;
3155;SDS011;1588;50.892;7.082;2023-07-20T22:24:44;8.80;;;6.83;;
3155;SDS011;1588;50.892;7.082;2023-07-20T22:29:47;10.93;;;6.40;;
3155;SDS011;1588;50.892;7.082;2023-07-20T22:34:49;8.60;;;6.53;;
3155;SDS011;1588;50.892;7.082;2023-07-20T22:39:53;7.73;;;5.70;;
3155;SDS011;1588;50.892;7.082;2023-07-20T22:44:55;11.67;;;6.57;;
3155;SDS011;1588;50.892;7.082;2023-07-20T22:49:59;9.03;;;6.17;;
3155;SDS011;1588;50.892;7.082;2023-07-20T22:55:03;11.87;;;6.67;;
3155;SDS011;1588;50.892;7.082;2023-07-20T23:00:08;9.10;;;6.73;;
3155;SDS011;1588;50.892;7.082;2023-07-20T23:05:14;11.00;;;6.67;;
3155;SDS011;1588;50.892;7.082;2023-07-20T23:10:18;9.93;;;6.87;;
3155;SDS011;1588;50.892;7.082;2023-07-20T23:15:21;13.53;;;7.10;;
3155;SDS011;1588;50.892;7.082;2023-07-20T23:20:23;12.17;;;8.20;;
3155;SDS011;1588;50.892;7.082;2023-07-20T23:25:32;14.67;;;7.00;;
3155;SDS011;1588;50.892;7.082;2023-07-20T23:30:35;11.87;;;7.70;;
3155;SDS011;1588;50.892;7.082;2023-07-20T23:35:38;11.50;;;7.93;;
3155;SDS011;1588;50.892;7.082;2023-07-20T23:40:43;12.03;;;7.90;;
3155;SDS011;1588;50.892;7.082;2023-07-20T23:45:46;11.60;;;8.13;;
3155;SDS011;1588;50.892;7.082;2023-07-20T23:50:48;13.83;;;8.20;;
3155;SDS011;1588;50.892;7.082;2023-07-20T23:55:52;11.23;;;7.30;;
